createdAt,value
2022-09-23T00:01:22.226Z,3.70
2022-09-23T00:03:50.139Z,3.70
2022-09-23T00:06:23.214Z,3.70
2022-09-23T00:08:52.321Z,3.80
2022-09-23T00:11:25.254Z,3.80
2022-09-23T00:13:59.948Z,3.80
2022-09-23T00:16:34.142Z,3.80
2022-09-23T00:19:04.025Z,3.80
2022-09-23T00:21:31.152Z,3.80
2022-09-23T00:23:58.070Z,3.80
2022-09-23T00:26:25.127Z,3.90
2022-09-23T00:28:52.700Z,4.00
2022-09-23T00:31:27.194Z,3.90
2022-09-23T00:34:01.299Z,3.90
2022-09-23T00:36:32.053Z,4.20
2022-09-23T00:38:59.854Z,4.40
2022-09-23T00:41:27.608Z,4.50
2022-09-23T00:43:59.580Z,4.60
2022-09-23T00:46:45.691Z,4.70
2022-09-23T00:49:28.105Z,4.90
2022-09-23T00:52:09.096Z,5.00
2022-09-23T00:54:36.032Z,4.90
2022-09-23T00:57:05.576Z,4.80
2022-09-23T00:59:34.776Z,4.70
2022-09-23T01:02:04.497Z,4.60
2022-09-23T01:04:32.144Z,4.60
2022-09-23T01:06:59.060Z,4.60
2022-09-23T01:09:26.613Z,4.60
2022-09-23T01:12:32.068Z,4.80
2022-09-23T01:15:28.212Z,4.90
2022-09-23T01:18:07.313Z,4.80
2022-09-23T01:21:34.650Z,4.80
2022-09-23T01:25:04.285Z,4.90
2022-09-23T01:28:38.525Z,4.90
2022-09-23T01:31:55.053Z,5.00
2022-09-23T01:34:53.405Z,5.10
2022-09-23T01:37:52.077Z,5.30
2022-09-23T01:41:12.394Z,5.40
2022-09-23T01:44:11.201Z,5.50
2022-09-23T01:47:12.218Z,5.60
2022-09-23T01:50:03.640Z,5.70
2022-09-23T01:52:47.096Z,5.70
2022-09-23T01:55:20.662Z,5.70
2022-09-23T01:58:02.389Z,5.70
2022-09-23T02:00:40.565Z,5.70
2022-09-23T02:03:18.118Z,5.60
2022-09-23T02:06:02.784Z,5.60
2022-09-23T02:08:43.825Z,5.60
2022-09-23T02:11:16.910Z,5.60
2022-09-23T02:13:56.166Z,5.70
2022-09-23T02:16:44.438Z,5.70
2022-09-23T02:19:30.071Z,5.70
2022-09-23T02:22:19.422Z,5.70
2022-09-23T02:24:46.317Z,5.80
2022-09-23T02:27:48.426Z,5.80
2022-09-23T02:30:29.552Z,5.80
2022-09-23T02:33:34.907Z,5.80
2022-09-23T02:36:25.960Z,5.80
2022-09-23T02:39:03.268Z,5.80
2022-09-23T02:42:02.165Z,5.80
2022-09-23T02:44:29.276Z,5.80
2022-09-23T02:46:57.855Z,5.80
2022-09-23T02:49:31.614Z,5.80
2022-09-23T02:52:05.482Z,5.80
2022-09-23T02:54:35.307Z,5.80
2022-09-23T02:57:08.019Z,5.80
2022-09-23T02:59:37.022Z,5.90
2022-09-23T03:03:10.439Z,5.90
2022-09-23T03:05:53.961Z,5.80
2022-09-23T03:08:57.635Z,5.80
2022-09-23T03:11:25.967Z,5.80
2022-09-23T03:14:22.616Z,5.70
2022-09-23T03:17:34.779Z,5.70
2022-09-23T03:20:15.375Z,5.60
2022-09-23T03:22:54.755Z,5.50
2022-09-23T03:25:26.644Z,5.40
2022-09-23T03:28:01.334Z,5.40
2022-09-23T03:30:35.289Z,5.40
2022-09-23T03:33:11.948Z,5.40
2022-09-23T03:36:12.176Z,5.40
2022-09-23T03:38:45.329Z,5.40
2022-09-23T03:41:28.280Z,5.40
2022-09-23T03:43:59.387Z,5.40
2022-09-23T03:46:30.085Z,5.30
2022-09-23T03:49:19.779Z,5.20
2022-09-23T03:51:46.704Z,5.30
2022-09-23T03:54:13.557Z,5.30
2022-09-23T03:56:40.428Z,5.30
2022-09-23T03:59:07.478Z,5.40
2022-09-23T04:01:34.464Z,5.40
2022-09-23T04:04:01.706Z,5.40
2022-09-23T04:06:28.656Z,5.50
2022-09-23T04:08:55.721Z,5.50
2022-09-23T04:11:22.640Z,5.50
2022-09-23T04:13:49.569Z,5.50
2022-09-23T04:16:16.591Z,5.50
2022-09-23T04:18:43.568Z,5.50
2022-09-23T04:21:10.496Z,5.50
2022-09-23T04:23:37.440Z,5.50
2022-09-23T04:26:05.940Z,5.50
2022-09-23T04:28:34.253Z,5.60
2022-09-23T04:31:07.554Z,5.50
2022-09-23T04:33:34.628Z,5.50
2022-09-23T04:36:01.893Z,5.50
2022-09-23T04:38:30.041Z,5.50
2022-09-23T04:40:56.971Z,5.40
2022-09-23T04:43:24.088Z,5.40
2022-09-23T04:46:04.165Z,5.40
2022-09-23T04:48:32.342Z,5.40
2022-09-23T04:51:06.230Z,5.40
2022-09-23T04:53:36.107Z,5.40
2022-09-23T04:56:11.545Z,5.40
2022-09-23T04:58:41.197Z,5.30
2022-09-23T05:01:26.589Z,5.30
2022-09-23T05:03:58.508Z,5.30
2022-09-23T05:06:25.926Z,5.30
2022-09-23T05:08:58.198Z,5.20
2022-09-23T05:11:26.958Z,5.20
2022-09-23T05:13:55.037Z,5.20
2022-09-23T05:16:24.850Z,5.20
2022-09-23T05:18:53.806Z,5.30
2022-09-23T05:21:24.978Z,5.30
2022-09-23T05:23:56.419Z,5.30
2022-09-23T05:26:28.971Z,5.30
2022-09-23T05:28:56.838Z,5.30
2022-09-23T05:31:28.088Z,5.40
2022-09-23T05:34:05.083Z,5.40
2022-09-23T05:36:38.587Z,5.40
2022-09-23T05:39:08.030Z,5.50
2022-09-23T05:41:36.915Z,5.50
2022-09-23T05:44:04.887Z,5.50
2022-09-23T05:46:33.019Z,5.50
2022-09-23T05:49:03.505Z,5.60
2022-09-23T05:51:34.834Z,5.60
2022-09-23T05:54:04.078Z,5.60
2022-09-23T05:56:33.748Z,5.60
2022-09-23T05:59:02.883Z,5.70
2022-09-23T06:01:35.187Z,5.70
2022-09-23T06:04:06.451Z,5.90
2022-09-23T06:06:38.904Z,6.10
2022-09-23T06:09:09.816Z,6.20
2022-09-23T06:11:37.425Z,6.50
2022-09-23T06:14:05.478Z,6.70
2022-09-23T06:16:35.481Z,6.90
2022-09-23T06:19:06.329Z,7.20
2022-09-23T06:21:38.078Z,7.50
2022-09-23T06:24:09.095Z,7.80
2022-09-23T06:26:38.151Z,8.00
2022-09-23T06:29:14.362Z,8.30
2022-09-23T06:31:42.024Z,8.50
2022-09-23T06:34:14.431Z,8.70
2022-09-23T06:36:46.377Z,9.00
2022-09-23T06:39:16.945Z,9.20
2022-09-23T06:41:45.013Z,9.60
2022-09-23T06:44:13.771Z,9.90
2022-09-23T06:46:41.249Z,10.10
2022-09-23T06:49:08.383Z,10.40
2022-09-23T06:51:35.444Z,10.70
2022-09-23T06:54:02.459Z,10.90
2022-09-23T06:56:31.553Z,11.20
2022-09-23T06:59:01.712Z,11.40
2022-09-23T07:01:28.708Z,11.80
2022-09-23T07:03:55.724Z,12.10
2022-09-23T07:06:22.610Z,12.20
2022-09-23T07:08:51.387Z,12.20
2022-09-23T07:11:22.257Z,12.20
2022-09-23T07:13:49.441Z,12.20
2022-09-23T07:16:16.471Z,12.40
2022-09-23T07:18:44.126Z,12.60
2022-09-23T07:21:17.177Z,12.90
2022-09-23T07:23:50.314Z,13.20
2022-09-23T07:26:19.716Z,13.50
2022-09-23T07:28:47.228Z,13.80
2022-09-23T07:31:30.415Z,14.10
2022-09-23T07:34:02.726Z,14.10
2022-09-23T07:36:33.089Z,14.30
2022-09-23T07:39:02.116Z,14.30
2022-09-23T07:41:32.701Z,14.50
2022-09-23T07:44:01.028Z,14.60
2022-09-23T07:46:34.948Z,14.70
2022-09-23T07:49:03.278Z,14.60
2022-09-23T07:51:36.928Z,15.00
2022-09-23T07:54:11.541Z,15.20
2022-09-23T07:56:39.306Z,15.10
2022-09-23T07:59:11.771Z,15.60
2022-09-23T08:04:31.736Z,16.00
2022-09-23T08:07:04.584Z,15.90
2022-09-23T08:09:41.612Z,15.90
2022-09-23T08:12:17.778Z,16.10
2022-09-23T08:14:45.054Z,16.30
2022-09-23T08:17:13.161Z,16.60
2022-09-23T08:19:40.041Z,16.80
2022-09-23T08:22:07.041Z,16.70
2022-09-23T08:24:33.911Z,16.70
2022-09-23T08:27:01.809Z,16.80
2022-09-23T08:29:28.759Z,17.20
2022-09-23T08:31:55.813Z,17.50
2022-09-23T08:34:26.622Z,17.40
2022-09-23T08:36:53.539Z,17.40
2022-09-23T08:39:22.699Z,17.50
2022-09-23T08:42:05.034Z,17.70
2022-09-23T08:44:54.097Z,18.30
2022-09-23T08:47:44.295Z,18.70
2022-09-23T08:50:21.976Z,19.00
2022-09-23T08:53:08.053Z,19.30
2022-09-23T08:55:44.574Z,19.20
2022-09-23T08:58:55.641Z,19.30
2022-09-23T09:01:49.174Z,19.60
2022-09-23T09:04:27.266Z,19.80
2022-09-23T09:10:26.703Z,20.70
2022-09-23T09:13:10.695Z,20.50
2022-09-23T09:16:11.502Z,20.70
2022-09-23T09:18:55.082Z,21.00
2022-09-23T09:21:38.514Z,20.90
2022-09-23T09:24:21.610Z,20.90
2022-09-23T09:26:48.606Z,20.80
2022-09-23T09:29:35.436Z,20.70
2022-09-23T09:32:33.603Z,20.50
2022-09-23T09:35:21.717Z,20.30
2022-09-23T09:37:48.830Z,20.80
2022-09-23T09:40:17.514Z,21.60
2022-09-23T09:42:50.439Z,21.80
2022-09-23T09:46:27.683Z,22.00
2022-09-23T09:49:35.681Z,22.90
2022-09-23T09:52:18.927Z,23.10
2022-09-23T09:54:46.106Z,22.90
2022-09-23T09:58:00.015Z,22.90
2022-09-23T10:00:27.096Z,23.70
2022-09-23T10:03:02.781Z,23.20
2022-09-23T10:05:46.691Z,23.60
2022-09-23T10:08:36.783Z,24.80
2022-09-23T10:11:15.457Z,24.30
2022-09-23T10:14:12.276Z,23.90
2022-09-23T10:16:41.892Z,24.00
2022-09-23T10:19:29.157Z,23.70
2022-09-23T10:22:04.746Z,23.50
2022-09-23T10:24:36.763Z,23.90
2022-09-23T10:27:09.648Z,24.30
2022-09-23T10:30:04.187Z,24.60
2022-09-23T10:32:44.803Z,24.60
2022-09-23T10:35:24.337Z,25.90
2022-09-23T10:38:00.570Z,25.90
2022-09-23T10:40:51.075Z,25.80
2022-09-23T10:44:17.128Z,25.80
2022-09-23T10:47:36.778Z,25.40
2022-09-23T10:50:44.188Z,25.10
2022-09-23T10:53:42.870Z,24.50
2022-09-23T10:56:36.755Z,23.80
2022-09-23T10:59:47.479Z,23.90
2022-09-23T11:03:09.320Z,23.80
2022-09-23T11:06:16.697Z,24.20
2022-09-23T11:09:19.960Z,24.10
2022-09-23T11:12:16.198Z,24.20
2022-09-23T11:15:08.532Z,24.40
2022-09-23T11:18:29.128Z,24.70
2022-09-23T11:21:56.987Z,24.60
2022-09-23T11:25:26.478Z,24.10
2022-09-23T11:28:52.365Z,23.60
2022-09-23T11:32:23.142Z,24.30
2022-09-23T11:35:24.208Z,25.30
2022-09-23T11:38:05.075Z,26.80
2022-09-23T11:40:40.958Z,27.00
2022-09-23T11:43:31.192Z,26.30
2022-09-23T11:46:27.773Z,25.40
2022-09-23T11:49:09.914Z,25.40
2022-09-23T11:52:10.443Z,24.70
2022-09-23T11:55:08.466Z,25.00
2022-09-23T11:57:59.780Z,25.20
2022-09-23T12:00:40.951Z,24.50
2022-09-23T12:03:45.035Z,24.40
2022-09-23T12:06:43.191Z,24.60
2022-09-23T12:09:53.883Z,24.70
2022-09-23T12:12:49.703Z,25.20
2022-09-23T12:16:19.029Z,25.40
2022-09-23T12:19:00.859Z,25.70
2022-09-23T12:22:12.104Z,25.70
2022-09-23T12:25:05.837Z,26.80
2022-09-23T12:27:42.002Z,27.40
2022-09-23T12:30:32.021Z,27.10
2022-09-23T12:33:32.314Z,27.10
2022-09-23T12:36:08.070Z,27.10
2022-09-23T12:38:40.377Z,26.70
2022-09-23T12:41:40.065Z,26.60
2022-09-23T12:44:29.284Z,25.70
2022-09-23T12:47:14.544Z,25.50
2022-09-23T12:49:43.595Z,27.50
2022-09-23T12:52:16.235Z,27.60
2022-09-23T12:54:49.980Z,27.90
2022-09-23T12:57:35.253Z,28.10
2022-09-23T13:00:11.261Z,27.00
2022-09-23T13:02:47.605Z,26.50
2022-09-23T13:05:43.435Z,27.00
2022-09-23T13:08:19.961Z,27.60
2022-09-23T13:11:08.358Z,28.20
2022-09-23T13:13:45.370Z,28.70
2022-09-23T13:16:36.899Z,30.10
2022-09-23T13:19:29.178Z,30.30
2022-09-23T13:22:10.919Z,29.90
2022-09-23T13:24:54.233Z,29.00
2022-09-23T13:27:32.509Z,29.00
2022-09-23T13:30:13.786Z,29.00
2022-09-23T13:33:14.030Z,28.80
2022-09-23T13:35:51.130Z,29.10
2022-09-23T13:38:27.942Z,29.40
2022-09-23T13:41:16.100Z,29.00
2022-09-23T13:44:02.625Z,28.70
2022-09-23T13:46:49.104Z,28.10
2022-09-23T13:49:32.633Z,28.20
2022-09-23T13:52:01.046Z,28.70
2022-09-23T13:54:49.193Z,29.40
2022-09-23T13:57:31.330Z,30.10
2022-09-23T14:00:21.204Z,29.10
2022-09-23T14:02:48.151Z,28.50
2022-09-23T14:05:32.452Z,27.90
2022-09-23T14:08:01.086Z,28.40
2022-09-23T14:10:28.414Z,28.30
2022-09-23T14:12:57.180Z,27.70
2022-09-23T14:15:24.615Z,28.30
2022-09-23T14:18:07.015Z,28.70
2022-09-23T14:20:50.177Z,29.20
2022-09-23T14:23:17.703Z,28.90
2022-09-23T14:25:47.372Z,28.80
2022-09-23T14:28:22.657Z,28.70
2022-09-23T14:30:56.470Z,27.60
2022-09-23T14:33:39.225Z,27.10
2022-09-23T14:36:37.197Z,27.20
2022-09-23T14:39:12.110Z,27.10
2022-09-23T14:41:45.341Z,26.70
2022-09-23T14:44:24.979Z,26.20
2022-09-23T14:47:00.192Z,26.30
2022-09-23T14:49:27.973Z,26.20
2022-09-23T14:52:05.626Z,25.70
2022-09-23T14:54:39.328Z,25.40
2022-09-23T14:57:29.823Z,25.40
2022-09-23T15:00:17.084Z,24.60
2022-09-23T15:03:00.719Z,24.30
2022-09-23T15:05:47.689Z,24.50
2022-09-23T15:08:22.906Z,24.60
2022-09-23T15:10:51.175Z,24.50
2022-09-23T15:13:49.827Z,24.90
2022-09-23T15:16:26.797Z,25.70
2022-09-23T15:18:58.536Z,25.40
2022-09-23T15:21:47.048Z,24.60
2022-09-23T15:24:44.772Z,24.40
2022-09-23T15:27:36.617Z,23.40
2022-09-23T15:30:16.925Z,23.00
2022-09-23T15:32:49.297Z,23.50
2022-09-23T15:35:27.669Z,24.00
2022-09-23T15:38:03.389Z,23.70
2022-09-23T15:40:42.929Z,23.00
2022-09-23T15:43:22.005Z,22.20
2022-09-23T15:45:58.448Z,21.50
2022-09-23T15:48:40.274Z,21.00
2022-09-23T15:51:10.434Z,20.50
2022-09-23T15:53:38.090Z,20.00
2022-09-23T15:56:08.558Z,19.50
2022-09-23T15:58:35.775Z,19.10
2022-09-23T16:01:05.057Z,18.90
2022-09-23T16:03:32.062Z,19.30
2022-09-23T16:06:02.990Z,19.60
2022-09-23T16:08:32.620Z,19.40
2022-09-23T16:10:59.566Z,19.00
2022-09-23T16:13:26.447Z,18.50
2022-09-23T16:15:53.419Z,18.00
2022-09-23T16:18:20.302Z,17.60
2022-09-23T16:20:49.316Z,17.20
2022-09-23T16:23:37.392Z,16.80
2022-09-23T16:26:20.381Z,16.50
2022-09-23T16:28:52.873Z,16.30
2022-09-23T16:31:22.212Z,16.00
2022-09-23T16:33:51.208Z,15.80
2022-09-23T16:36:30.979Z,15.60
2022-09-23T16:39:06.997Z,15.30
2022-09-23T16:41:34.382Z,15.10
2022-09-23T16:44:06.175Z,14.80
2022-09-23T16:46:35.172Z,14.60
2022-09-23T16:49:02.774Z,14.30
2022-09-23T16:51:37.991Z,14.10
2022-09-23T16:54:13.023Z,13.90
2022-09-23T16:56:44.144Z,13.60
2022-09-23T16:59:16.271Z,13.50
2022-09-23T17:02:02.440Z,13.30
2022-09-23T17:04:29.633Z,13.00
2022-09-23T17:06:56.592Z,12.80
2022-09-23T17:09:28.543Z,12.70
2022-09-23T17:12:08.557Z,12.60
2022-09-23T17:14:35.448Z,12.40
2022-09-23T17:17:02.292Z,12.20
2022-09-23T17:19:29.283Z,12.00
2022-09-23T17:21:56.185Z,11.90
2022-09-23T17:24:23.457Z,11.70
2022-09-23T17:26:53.207Z,11.60
2022-09-23T17:29:20.605Z,11.40
2022-09-23T17:31:47.658Z,11.30
2022-09-23T17:34:14.753Z,11.10
2022-09-23T17:36:41.713Z,11.00
2022-09-23T17:39:08.699Z,11.00
2022-09-23T17:41:37.246Z,10.90
2022-09-23T17:44:04.697Z,10.80
2022-09-23T17:46:32.066Z,10.70
2022-09-23T17:48:58.958Z,10.50
2022-09-23T17:51:25.945Z,10.30
2022-09-23T17:53:52.932Z,10.20
2022-09-23T17:56:26.232Z,10.10
2022-09-23T17:58:54.354Z,10.00
2022-09-23T18:01:24.994Z,10.00
2022-09-23T18:04:12.566Z,9.90
2022-09-23T18:06:39.547Z,9.90
2022-09-23T18:09:08.567Z,9.90
2022-09-23T18:11:40.992Z,9.90
2022-09-23T18:14:21.022Z,9.80
2022-09-23T18:16:52.991Z,9.70
2022-09-23T18:19:24.565Z,9.60
2022-09-23T18:21:57.067Z,9.50
2022-09-23T18:24:32.422Z,9.50
2022-09-23T18:27:01.293Z,9.50
2022-09-23T18:29:28.503Z,9.50
2022-09-23T18:31:55.732Z,9.40
2022-09-23T18:34:23.454Z,9.40
2022-09-23T18:36:50.738Z,9.50
2022-09-23T18:39:17.896Z,9.50
2022-09-23T18:41:44.834Z,9.50
2022-09-23T18:44:11.812Z,9.50
2022-09-23T18:46:38.803Z,9.40
2022-09-23T18:49:24.628Z,9.30
2022-09-23T18:51:55.987Z,9.10
2022-09-23T18:54:28.752Z,9.10
2022-09-23T18:56:56.719Z,9.00
2022-09-23T18:59:29.469Z,9.00
2022-09-23T19:01:57.246Z,9.00
2022-09-23T19:04:27.241Z,8.90
2022-09-23T19:06:56.257Z,8.90
2022-09-23T19:09:23.674Z,8.90
2022-09-23T19:11:52.661Z,8.90
2022-09-23T19:14:20.390Z,8.80
2022-09-23T19:16:49.128Z,8.80
2022-09-23T19:19:16.525Z,8.60
2022-09-23T19:21:43.496Z,8.50
2022-09-23T19:24:15.829Z,8.40
2022-09-23T19:26:44.142Z,8.30
2022-09-23T19:29:21.641Z,8.20
2022-09-23T19:31:49.660Z,8.30
2022-09-23T19:34:24.601Z,8.30
2022-09-23T19:36:52.840Z,8.30
2022-09-23T19:39:28.145Z,8.20
2022-09-23T19:41:55.597Z,8.20
2022-09-23T19:44:24.994Z,8.20
2022-09-23T19:46:56.485Z,8.20
2022-09-23T19:49:25.796Z,8.20
2022-09-23T19:51:55.339Z,8.20
2022-09-23T19:54:25.909Z,8.20
2022-09-23T19:56:52.760Z,8.10
2022-09-23T19:59:19.860Z,8.10
2022-09-23T20:01:48.433Z,8.20
2022-09-23T20:04:16.697Z,8.20
2022-09-23T20:06:43.671Z,8.30
2022-09-23T20:09:10.675Z,8.30
2022-09-23T20:11:37.914Z,8.30
2022-09-23T20:14:06.103Z,8.40
2022-09-23T20:16:36.867Z,8.40
2022-09-23T20:19:05.574Z,8.40
2022-09-23T20:21:34.154Z,8.40
2022-09-23T20:24:04.296Z,8.40
2022-09-23T20:26:50.057Z,8.40
2022-09-23T20:29:17.028Z,8.40
2022-09-23T20:31:44.401Z,8.40
2022-09-23T20:34:12.100Z,8.40
2022-09-23T20:36:41.536Z,8.40
2022-09-23T20:39:10.492Z,8.40
2022-09-23T20:41:39.102Z,8.40
2022-09-23T20:44:13.904Z,8.30
2022-09-23T20:46:48.298Z,8.20
2022-09-23T20:49:17.984Z,8.20
2022-09-23T20:51:47.553Z,8.20
2022-09-23T20:54:15.798Z,8.20
2022-09-23T20:56:42.631Z,8.20
2022-09-23T20:59:10.559Z,8.30
2022-09-23T21:01:37.620Z,8.20
2022-09-23T21:04:05.598Z,8.20
2022-09-23T21:06:35.645Z,8.10
2022-09-23T21:09:04.570Z,8.00
2022-09-23T21:11:32.026Z,8.10
2022-09-23T21:14:00.936Z,8.10
2022-09-23T21:16:28.569Z,8.10
2022-09-23T21:18:55.526Z,8.20
2022-09-23T21:21:22.568Z,8.10
2022-09-23T21:23:50.951Z,8.10
2022-09-23T21:26:25.185Z,8.10
2022-09-23T21:28:57.769Z,8.00
2022-09-23T21:31:33.404Z,8.00
2022-09-23T21:34:09.195Z,8.00
2022-09-23T21:36:41.287Z,7.90
2022-09-23T21:39:11.054Z,7.90
2022-09-23T21:41:39.887Z,7.90
2022-09-23T21:44:08.170Z,7.90
2022-09-23T21:46:36.550Z,7.90
2022-09-23T21:49:04.966Z,7.90
2022-09-23T21:51:40.375Z,8.00
2022-09-23T21:54:16.765Z,8.00
2022-09-23T21:56:44.877Z,8.10
2022-09-23T21:59:12.119Z,8.10
2022-09-23T22:01:44.254Z,8.20
2022-09-23T22:04:18.667Z,8.20
2022-09-23T22:06:48.688Z,8.30
2022-09-23T22:09:20.516Z,8.40
2022-09-23T22:12:07.288Z,8.50
2022-09-23T22:14:34.507Z,8.50
2022-09-23T22:17:06.876Z,8.50
2022-09-23T22:19:40.260Z,8.50
2022-09-23T22:22:13.374Z,8.50
2022-09-23T22:24:46.844Z,8.60
2022-09-23T22:27:18.382Z,8.70
2022-09-23T22:30:03.927Z,8.80
2022-09-23T22:32:54.288Z,8.90
2022-09-23T22:35:22.219Z,8.90
2022-09-23T22:37:49.073Z,9.00
2022-09-23T22:40:16.651Z,9.00
2022-09-23T22:42:44.308Z,9.00
2022-09-23T22:45:12.725Z,9.00
2022-09-23T22:47:44.880Z,9.00
2022-09-23T22:50:14.201Z,9.00
2022-09-23T22:52:41.242Z,9.10
2022-09-23T22:55:09.217Z,9.00
2022-09-23T22:57:36.528Z,8.90
2022-09-23T23:00:08.299Z,8.90
2022-09-23T23:02:35.189Z,8.90
2022-09-23T23:05:02.111Z,9.00
2022-09-23T23:07:28.959Z,9.00
2022-09-23T23:09:55.811Z,9.00
2022-09-23T23:12:22.695Z,9.00
2022-09-23T23:14:49.777Z,9.00
2022-09-23T23:17:18.560Z,8.90
2022-09-23T23:19:45.623Z,8.90
2022-09-23T23:22:12.507Z,8.80
2022-09-23T23:24:39.792Z,8.80
2022-09-23T23:27:06.947Z,8.70
2022-09-23T23:29:33.924Z,8.60
2022-09-23T23:32:00.970Z,8.50
2022-09-23T23:34:28.021Z,8.50
2022-09-23T23:36:55.612Z,8.40
2022-09-23T23:39:25.348Z,8.40
2022-09-23T23:41:55.379Z,8.40
2022-09-23T23:44:25.276Z,8.40
2022-09-23T23:46:54.093Z,8.40
2022-09-23T23:49:21.769Z,8.30
2022-09-23T23:51:48.822Z,8.30
2022-09-23T23:54:16.412Z,8.30
2022-09-23T23:56:43.688Z,8.20
2022-09-23T23:59:11.150Z,8.20
